Kinde, Michigan
Current Conditions -  °F | °C
As of 5:39 PM on Saturday 25 Oct 2014 (Local Time) from KBAX Reporting Station
Clear Clear  
Wind Chill: 62°   Ceiling: Unl
Heat Index: 62°   Visibility: 10mi
Dew Point: 35°   Wind: 18mph
Humidity: 36%   Direction: 290°WNW
Pressure: 29.68"   Gusts: 28mph
Location:  43.94°N, 83°W
Report Text: KBAX 252139Z AUTO 29016G24KT 10SM CLR 17/02 A2968 RMK AO2 T01680016
Loading
Personal Weather Stations






























Interactive Weather Map
Tropical Storm Tracking
New forecast layout! Learn more

10-Day Weather Forecast

Advertisements
Track Severe Weather on mobile